Terminal Aerodrome Forecast
Issued by NWS

Home | Current Version | Previous Version | Graphics & Text | Print | Product List | Glossary On
Versions: 1 2 3 4 5 6 7 8 9 10 11 12 13 14 15
940
FTUS43 KBIS 231720
TAFDIK
TAF
KDIK 231720Z 2318/2418 32019G32KT P6SM SCT050
     FM240100 32013KT P6SM FEW070 FEW200
     FM241400 31013KT P6SM FEW030 FEW250=

USA.gov is the U.S. government's official web portal to all federal, state and local government web resources and services.